Time;durP1;ratioP1;P1;durP2;ratioP2;P2;SDS_P1;SDS_P2;PMS_P1;PMS_P2;Temp;Humidity;BMP_temperature;BMP_pressure;BME280_temperature;BME280_humidity;BME280_pressure;Samples;Min_cycle;Max_cycle;Signal;HPM_P1;HPM_P2
2022/11/27 00:00:35;;;;;;;14.88;5.07;;;;;;;4.67;100.00;102429.97;5093579;28;20512;-77
2022/11/27 00:03:01;;;;;;;15.48;5.40;;;;;;;4.64;100.00;102422.16;5092928;28;20032;-78
2022/11/27 00:05:26;;;;;;;13.27;4.45;;;;;;;4.64;100.00;102414.22;5073931;28;20043;-79
2022/11/27 00:07:51;;;;;;;15.35;4.93;;;;;;;4.63;100.00;102403.75;5093090;28;20024;-80
2022/11/27 00:10:17;;;;;;;18.90;5.45;;;;;;;4.59;100.00;102408.31;5092308;28;20036;-79
2022/11/27 00:12:42;;;;;;;14.63;4.35;;;;;;;4.61;100.00;102397.69;5092513;28;20024;-80
2022/11/27 00:15:07;;;;;;;12.20;4.63;;;;;;;4.60;100.00;102402.13;5092615;28;20036;-79
2022/11/27 00:17:33;;;;;;;13.57;4.90;;;;;;;4.59;100.00;102395.97;5092256;28;20020;-79
2022/11/27 00:19:58;;;;;;;13.38;4.85;;;;;;;4.59;100.00;102397.75;5092721;28;20476;-77
2022/11/27 00:22:25;;;;;;;14.52;5.13;;;;;;;4.61;100.00;102385.34;5057336;28;20480;-78
2022/11/27 00:24:51;;;;;;;14.10;4.78;;;;;;;4.66;100.00;102403.63;5092571;28;20032;-80
2022/11/27 00:27:16;;;;;;;19.52;5.30;;;;;;;4.68;100.00;102396.53;5092166;28;20491;-79
2022/11/27 00:29:41;;;;;;;12.15;4.00;;;;;;;4.70;100.00;102400.84;5092560;28;20032;-79
2022/11/27 00:32:07;;;;;;;14.10;4.70;;;;;;;4.71;100.00;102397.25;5074178;28;20580;-78
2022/11/27 00:34:33;;;;;;;17.30;5.22;;;;;;;4.70;100.00;102402.59;5092239;28;20422;-79
2022/11/27 00:36:58;;;;;;;23.77;5.00;;;;;;;4.68;100.00;102388.63;5092712;28;20035;-79
2022/11/27 00:39:23;;;;;;;14.15;4.40;;;;;;;4.71;100.00;102380.59;5091750;28;20034;-78
2022/11/27 00:41:49;;;;;;;15.80;4.55;;;;;;;4.68;100.00;102368.38;5092123;28;20455;-78
2022/11/27 00:44:14;;;;;;;9.50;4.40;;;;;;;4.69;100.00;102385.06;5092630;28;20464;-78
2022/11/27 00:46:42;;;;;;;18.77;4.18;;;;;;;4.68;100.00;102384.19;5091874;28;20032;-78
2022/11/27 00:49:11;;;;;;;15.20;4.13;;;;;;;4.67;100.00;102369.31;5092221;28;20028;-78
2022/11/27 00:51:36;;;;;;;12.57;4.10;;;;;;;4.68;100.00;102375.44;5091918;28;20298;-78
2022/11/27 00:54:02;;;;;;;14.88;4.60;;;;;;;4.68;100.00;102365.75;5092658;28;20082;-78
2022/11/27 00:56:30;;;;;;;10.27;3.92;;;;;;;4.72;100.00;102374.41;5091558;28;20495;-78
2022/11/27 00:58:56;;;;;;;14.68;4.60;;;;;;;4.72;100.00;102379.66;5074394;28;20068;-78
2022/11/27 01:01:26;;;;;;;11.85;3.95;;;;;;;4.75;100.00;102390.09;5091960;28;20515;-78
2022/11/27 01:03:53;;;;;;;16.42;4.20;;;;;;;4.77;100.00;102385.59;5092702;28;20103;-78
2022/11/27 01:06:19;;;;;;;10.48;3.47;;;;;;;4.81;100.00;102370.50;5073950;28;20032;-78
2022/11/27 01:08:46;;;;;;;15.15;3.75;;;;;;;4.81;100.00;102370.50;5091712;28;20428;-77
2022/11/27 01:11:18;;;;;;;10.45;3.50;;;;;;;4.84;100.00;102358.06;5092462;28;20036;-78
2022/11/27 01:13:43;;;;;;;10.45;3.50;;;;;;;4.87;100.00;102378.19;5091531;28;20024;-78
2022/11/27 01:16:12;;;;;;;18.08;4.93;;;;;;;4.87;100.00;102362.34;5074145;28;20350;-78
2022/11/27 01:18:39;;;;;;;12.38;3.85;;;;;;;4.89;100.00;102357.84;5074046;28;20081;-78
2022/11/27 01:21:05;;;;;;;12.75;3.53;;;;;;;4.92;100.00;102344.53;5092400;28;20028;-79
2022/11/27 01:23:31;;;;;;;8.15;3.17;;;;;;;4.94;100.00;102345.31;5091497;28;20081;-79
2022/11/27 01:26:00;;;;;;;14.35;4.07;;;;;;;5.00;100.00;102336.28;5073886;28;20028;-78
2022/11/27 01:28:25;;;;;;;11.65;3.95;;;;;;;5.01;100.00;102322.19;5094345;28;20026;-78
2022/11/27 01:30:50;;;;;;;13.40;4.05;;;;;;;5.04;100.00;102324.69;5095173;28;20044;-77
2022/11/27 01:33:16;;;;;;;10.57;3.47;;;;;;;5.03;100.00;102315.94;5095936;28;20488;-77
2022/11/27 01:35:42;;;;;;;18.17;4.15;;;;;;;5.03;100.00;102313.28;5094947;28;20294;-78
2022/11/27 01:38:08;;;;;;;10.27;3.53;;;;;;;5.01;100.00;102309.84;5095899;28;20032;-78
2022/11/27 01:40:33;;;;;;;11.23;3.53;;;;;;;5.05;100.00;102302.66;5095257;28;20043;-76
2022/11/27 01:42:58;;;;;;;13.93;3.40;;;;;;;5.05;100.00;102305.31;5095733;28;20036;-78
2022/11/27 01:45:24;;;;;;;15.35;3.70;;;;;;;5.06;100.00;102301.72;5095009;28;20480;-78
2022/11/27 01:47:53;;;;;;;10.45;3.67;;;;;;;5.05;100.00;102297.38;5095642;28;20032;-78
2022/11/27 01:50:32;;;;;;;10.77;3.10;;;;;;;5.02;100.00;102294.88;5095593;28;20515;-78
2022/11/27 01:53:12;;;;;;;11.57;3.70;;;;;;;4.99;100.00;102298.50;5095263;28;20032;-78
2022/11/27 01:55:45;;;;;;;12.80;3.55;;;;;;;4.99;100.00;102292.38;5095171;28;20039;-78
2022/11/27 01:58:20;;;;;;;11.35;3.72;;;;;;;4.99;100.00;102285.31;5095077;28;20028;-77
2022/11/27 02:00:46;;;;;;;10.63;3.55;;;;;;;5.00;100.00;102278.25;5094675;28;20466;-78
2022/11/27 02:03:11;;;;;;;11.48;3.28;;;;;;;4.99;100.00;102277.41;5095221;28;20155;-77
2022/11/27 02:05:37;;;;;;;7.82;3.40;;;;;;;4.99;100.00;102274.75;5094909;28;20081;-78
2022/11/27 02:08:06;;;;;;;12.45;3.38;;;;;;;4.97;100.00;102278.38;5095285;28;20028;-77
2022/11/27 02:10:51;;;;;;;11.70;4.10;;;;;;;5.01;100.00;102290.53;5094422;28;20134;-78
2022/11/27 02:13:32;;;;;;;12.98;3.28;;;;;;;5.02;100.00;102279.91;5095488;28;20463;-78
2022/11/27 02:16:30;;;;;;;7.97;3.25;;;;;;;5.05;100.00;102290.31;5095202;28;20024;-78
2022/11/27 02:19:24;;;;;;;11.35;4.05;;;;;;;5.09;100.00;102288.38;5094701;28;20036;-79
2022/11/27 02:22:04;;;;;;;12.27;4.05;;;;;;;5.07;100.00;102279.69;5095018;28;20120;-79
2022/11/27 02:24:58;;;;;;;8.23;3.25;;;;;;;5.06;100.00;102284.13;5094808;28;20031;-78
2022/11/27 02:27:50;;;;;;;13.07;3.78;;;;;;;5.09;100.00;102280.47;5094862;28;20024;-79
2022/11/27 02:30:16;;;;;;;10.23;3.67;;;;;;;5.12;100.00;102283.00;5094725;28;20047;-78
2022/11/27 02:32:45;;;;;;;13.48;3.60;;;;;;;5.13;100.00;102279.41;5094177;28;20048;-78
2022/11/27 02:35:16;;;;;;;14.02;3.38;;;;;;;5.14;100.00;102273.22;5094381;28;20047;-78
2022/11/27 02:37:54;;;;;;;;;;;;;;;5.19;100.00;102271.22;5094025;28;20035;-77
2022/11/27 02:40:26;;;;;;;17.42;3.92;;;;;;;5.19;100.00;102265.94;5094487;28;20002;-78
2022/11/27 02:43:06;;;;;;;11.65;3.20;;;;;;;5.18;100.00;102263.38;5093947;28;20385;-78
2022/11/27 02:45:43;;;;;;;14.53;3.37;;;;;;;5.17;100.00;102261.69;5094000;28;20107;-78
2022/11/27 02:48:12;;;;;;;9.05;3.22;;;;;;;5.17;100.00;102257.25;5094521;28;20024;-77
2022/11/27 02:50:40;;;;;;;9.60;3.35;;;;;;;5.17;100.00;102259.91;5093689;28;20031;-78
2022/11/27 02:53:14;;;;;;;14.50;3.40;;;;;;;5.15;100.00;102256.47;5094183;28;20062;-78
2022/11/27 02:55:42;;;;;;;12.38;3.30;;;;;;;5.16;100.00;102270.50;5093453;28;20031;-78
2022/11/27 02:58:11;;;;;;;10.10;3.22;;;;;;;5.16;100.00;102276.63;5094263;28;20024;-78
2022/11/27 03:00:38;;;;;;;10.20;3.20;;;;;;;5.17;100.00;102274.88;5093155;28;20035;-80
2022/11/27 03:03:07;;;;;;;13.02;3.90;;;;;;;5.15;100.00;102274.06;5094133;28;20035;-79
2022/11/27 03:05:38;;;;;;;12.00;3.63;;;;;;;5.15;100.00;102269.69;5093687;28;20028;-77
2022/11/27 03:08:28;;;;;;;12.43;3.22;;;;;;;5.15;100.00;102261.75;5093986;28;20103;-76
2022/11/27 03:11:02;;;;;;;13.57;3.30;;;;;;;5.19;100.00;102260.66;5093539;28;20158;-80
2022/11/27 03:13:30;;;;;;;14.95;3.38;;;;;;;5.20;100.00;102254.47;5093644;28;20032;-78
2022/11/27 03:16:14;;;;;;;9.80;3.33;;;;;;;5.21;100.00;102242.13;5093202;28;20477;-78
2022/11/27 03:18:57;;;;;;;10.88;3.38;;;;;;;5.20;100.00;102241.28;5093509;28;20149;-77
2022/11/27 03:21:37;;;;;;;14.98;3.75;;;;;;;5.20;100.00;102246.56;5094039;28;20028;-78
2022/11/27 03:24:04;;;;;;;9.48;3.30;;;;;;;5.20;100.00;102251.00;5093695;28;20472;-79
2022/11/27 03:26:30;;;;;;;11.35;3.40;;;;;;;5.20;100.00;102254.47;5093792;28;20063;-79
2022/11/27 03:28:58;;;;;;;11.70;2.92;;;;;;;5.21;100.00;102257.97;5093403;28;20040;-78
2022/11/27 03:31:24;;;;;;;12.75;3.20;;;;;;;5.24;100.00;102250.78;5093407;28;20048;-78
2022/11/27 03:33:50;;;;;;;13.13;3.17;;;;;;;5.25;100.00;102234.00;5075352;28;20042;-78
2022/11/27 03:36:18;;;;;;;11.13;2.83;;;;;;;5.26;100.00;102234.88;5093632;28;20465;-78
2022/11/27 03:38:46;;;;;;;11.73;3.15;;;;;;;5.27;100.00;102247.16;5093043;28;20035;-78
2022/11/27 03:41:25;;;;;;;14.65;3.58;;;;;;;5.28;100.00;102233.00;5093061;28;20032;-79
2022/11/27 03:44:15;;;;;;;14.73;3.45;;;;;;;5.28;100.00;102222.44;5093711;28;20085;-79
2022/11/27 03:47:08;;;;;;;10.57;3.20;;;;;;;5.26;100.00;102232.22;5093035;28;20036;-78
2022/11/27 03:49:33;;;;;;;13.27;3.50;;;;;;;5.27;100.00;102231.31;5092485;28;20089;-77
2022/11/27 03:52:32;;;;;;;16.35;3.50;;;;;;;5.29;100.00;102229.44;5092870;28;20563;-78
2022/11/27 03:55:12;;;;;;;12.95;3.08;;;;;;;5.30;100.00;102239.09;5053125;28;20500;-77
2022/11/27 03:57:52;;;;;;;8.55;2.92;;;;;;;5.29;100.00;102235.56;5075259;28;20028;-77
2022/11/27 04:00:18;;;;;;;14.20;3.75;;;;;;;5.30;100.00;102245.22;5093348;28;20043;-78
2022/11/27 04:02:50;;;;;;;10.07;3.50;;;;;;;5.29;100.00;102237.38;5092503;28;20032;-78
2022/11/27 04:05:16;;;;;;;8.88;2.90;;;;;;;5.27;100.00;102229.53;5093046;28;20024;-78
2022/11/27 04:07:42;;;;;;;11.95;3.20;;;;;;;5.25;100.00;102226.06;5092385;28;20028;-78
2022/11/27 04:10:08;;;;;;;16.95;3.05;;;;;;;5.21;100.00;102229.81;5092804;28;20475;-77
2022/11/27 04:12:34;;;;;;;15.88;3.53;;;;;;;5.18;100.00;102237.88;5074960;28;20036;-78
2022/11/27 04:14:59;;;;;;;11.50;3.53;;;;;;;5.17;100.00;102238.78;5092051;28;20032;-77
2022/11/27 04:17:24;;;;;;;10.75;3.65;;;;;;;5.12;100.00;102238.16;5092637;28;20063;-77
2022/11/27 04:19:50;;;;;;;11.90;3.50;;;;;;;5.10;100.00;102238.19;5092460;28;20043;-76
2022/11/27 04:22:15;;;;;;;11.55;3.08;;;;;;;5.07;100.00;102229.56;5092838;28;20436;-76
2022/11/27 04:24:40;;;;;;;8.98;2.78;;;;;;;5.06;100.00;102238.41;5074726;28;20075;-77
2022/11/27 04:27:06;;;;;;;9.65;3.28;;;;;;;5.04;100.00;102235.84;5073988;28;20115;-77
2022/11/27 04:29:31;;;;;;;13.63;3.42;;;;;;;5.05;100.00;102231.44;5074622;28;20032;-77
2022/11/27 04:31:56;;;;;;;7.90;2.92;;;;;;;5.02;100.00;102224.50;5092273;28;20510;-77
2022/11/27 04:34:22;;;;;;;14.98;3.05;;;;;;;5.03;100.00;102222.72;5092238;28;20028;-77
2022/11/27 04:36:47;;;;;;;16.50;3.60;;;;;;;4.99;100.00;102214.09;5091967;28;20030;-77
2022/11/27 04:39:13;;;;;;;10.50;3.03;;;;;;;4.97;100.00;102208.03;5092079;28;20028;-76
2022/11/27 04:41:38;;;;;;;8.68;3.20;;;;;;;4.91;100.00;102203.88;5092177;28;20071;-76
2022/11/27 04:44:04;;;;;;;8.63;3.10;;;;;;;4.92;100.00;102200.31;5091765;28;20024;-76
2022/11/27 04:46:30;;;;;;;8.85;3.03;;;;;;;4.89;100.00;102211.00;5092265;28;20473;-76
2022/11/27 04:48:55;;;;;;;9.65;3.58;;;;;;;4.92;100.00;102212.66;5091864;28;20054;-76
2022/11/27 04:51:21;;;;;;;13.98;3.00;;;;;;;4.95;100.00;102215.16;5092600;28;20123;-76
2022/11/27 04:53:46;;;;;;;11.30;3.10;;;;;;;4.94;100.00;102198.47;5092108;28;20491;-76
2022/11/27 04:56:11;;;;;;;13.55;2.63;;;;;;;4.94;100.00;102200.25;5092061;28;20453;-76
2022/11/27 04:58:37;;;;;;;22.40;2.92;;;;;;;4.95;100.00;102194.03;5092256;28;20489;-76
2022/11/27 05:01:02;;;;;;;10.98;2.80;;;;;;;4.94;100.00;102184.41;5074387;28;20029;-76
2022/11/27 05:03:27;;;;;;;6.20;2.05;;;;;;;4.96;100.00;102185.22;5096456;28;20063;-76
2022/11/27 05:05:56;;;;;;;10.98;2.75;;;;;;;4.95;100.00;102181.69;5095816;28;20036;-77
2022/11/27 05:08:23;;;;;;;7.47;2.30;;;;;;;4.97;100.00;102181.66;5096225;28;20052;-77
2022/11/27 05:11:07;;;;;;;10.35;2.67;;;;;;;4.99;100.00;102174.53;5096313;28;20103;-77
2022/11/27 05:13:33;;;;;;;5.95;1.95;;;;;;;5.00;100.00;102183.28;5096801;28;20106;-77
2022/11/27 05:15:59;;;;;;;9.10;3.00;;;;;;;4.96;100.00;102174.66;5096032;28;20123;-76
2022/11/27 05:18:25;;;;;;;10.77;2.72;;;;;;;4.96;100.00;102177.31;5095885;28;20111;-75
2022/11/27 05:20:59;;;;;;;15.10;2.47;;;;;;;4.95;100.00;102172.94;5077718;28;20387;-77
2022/11/27 05:23:25;;;;;;;13.18;2.40;;;;;;;4.92;100.00;102170.44;5095919;28;20079;-75
2022/11/27 05:25:50;;;;;;;7.97;2.70;;;;;;;4.88;100.00;102167.09;5095905;28;20032;-75
2022/11/27 05:28:15;;;;;;;14.88;2.80;;;;;;;4.88;100.00;102161.81;5095661;28;20476;-76
2022/11/27 05:30:41;;;;;;;11.35;3.10;;;;;;;4.87;100.00;102161.91;5095414;28;20083;-74
2022/11/27 05:33:06;;;;;;;9.98;2.40;;;;;;;4.83;100.00;102171.72;5095485;28;20039;-74
2022/11/27 05:35:32;;;;;;;14.38;2.72;;;;;;;4.83;100.00;102176.16;5096021;28;20117;-75
2022/11/27 05:37:57;;;;;;;9.07;2.40;;;;;;;4.81;100.00;102170.06;5095325;28;20032;-78
2022/11/27 05:40:23;;;;;;;9.15;2.67;;;;;;;4.78;100.00;102157.91;5095837;28;20059;-75
2022/11/27 05:42:48;;;;;;;9.63;2.80;;;;;;;4.76;100.00;102157.09;5077658;28;20036;-75
2022/11/27 05:45:13;;;;;;;15.70;3.08;;;;;;;4.75;100.00;102161.50;5077172;28;20391;-75
2022/11/27 05:47:39;;;;;;;8.68;2.60;;;;;;;4.75;100.00;102156.25;5077104;28;20373;-75
2022/11/27 05:50:05;;;;;;;8.02;2.55;;;;;;;4.74;100.00;102151.03;5095291;28;20084;-76
2022/11/27 05:52:30;;;;;;;9.45;2.83;;;;;;;4.71;100.00;102146.75;5095650;28;20032;-76
2022/11/27 05:54:55;;;;;;;14.52;3.08;;;;;;;4.71;100.00;102151.19;5095249;28;20535;-76
2022/11/27 05:57:21;;;;;;;9.05;2.78;;;;;;;4.70;100.00;102144.19;5095198;28;20028;-75
2022/11/27 05:59:46;;;;;;;9.70;2.70;;;;;;;4.69;100.00;102143.34;5095414;28;20032;-76
2022/11/27 06:02:12;;;;;;;9.95;2.58;;;;;;;4.68;100.00;102138.97;5076964;28;20036;-76
2022/11/27 06:04:37;;;;;;;13.82;2.90;;;;;;;4.66;100.00;102137.31;5077074;28;20062;-75
2022/11/27 06:07:03;;;;;;;9.45;2.78;;;;;;;4.67;100.00;102133.78;5094799;28;20058;-76
2022/11/27 06:09:28;;;;;;;10.35;3.33;;;;;;;4.65;100.00;102141.75;5095299;28;20115;-76
2022/11/27 06:11:53;;;;;;;9.00;2.90;;;;;;;4.63;100.00;102127.81;5095224;28;20056;-76
2022/11/27 06:14:19;;;;;;;10.50;2.55;;;;;;;4.63;100.00;102133.06;5075701;28;20396;-76
2022/11/27 06:16:44;;;;;;;9.27;2.78;;;;;;;4.63;100.00;102133.06;5095551;28;20028;-76
2022/11/27 06:19:09;;;;;;;7.28;2.67;;;;;;;4.61;100.00;102123.50;5076566;28;20036;-76
2022/11/27 06:21:35;;;;;;;9.40;2.80;;;;;;;4.59;100.00;102115.66;5095099;28;20035;-76
2022/11/27 06:24:02;;;;;;;10.80;2.72;;;;;;;4.59;100.00;102118.31;5094540;28;20032;-76
2022/11/27 06:26:29;;;;;;;7.85;2.63;;;;;;;4.57;100.00;102114.91;5095015;28;20036;-76
2022/11/27 06:28:56;;;;;;;6.65;2.58;;;;;;;4.57;100.00;102123.66;5094776;28;20490;-76
2022/11/27 06:31:24;;;;;;;8.25;2.95;;;;;;;4.53;100.00;102108.88;5075982;28;20048;-75
2022/11/27 06:33:51;;;;;;;8.07;3.10;;;;;;;4.53;100.00;102111.53;5094793;28;20057;-75
2022/11/27 06:36:17;;;;;;;8.27;3.30;;;;;;;4.54;100.00;102099.22;5095218;28;20028;-76
2022/11/27 06:38:43;;;;;;;10.52;2.72;;;;;;;4.52;100.00;102101.94;5095581;28;20059;-75
2022/11/27 06:41:15;;;;;;;8.23;2.72;;;;;;;4.52;100.00;102095.78;5094164;28;20461;-75
2022/11/27 06:43:40;;;;;;;7.28;2.25;;;;;;;4.52;100.00;102090.50;5094678;28;20036;-76
2022/11/27 06:46:09;;;;;;;12.15;2.70;;;;;;;4.51;100.00;102087.03;5094372;28;20039;-75
2022/11/27 06:48:35;;;;;;;6.35;2.30;;;;;;;4.51;100.00;102079.13;5094458;28;20039;-75
2022/11/27 06:51:02;;;;;;;6.20;2.25;;;;;;;4.50;100.00;102081.81;5094396;28;20457;-76
2022/11/27 06:53:29;;;;;;;5.60;2.72;;;;;;;4.51;100.00;102070.34;5094572;28;20032;-76
2022/11/27 06:55:55;;;;;;;8.60;3.13;;;;;;;4.51;100.00;102081.75;5094630;28;20036;-75
2022/11/27 06:58:20;;;;;;;9.85;2.88;;;;;;;4.49;100.00;102059.03;5093913;28;20034;-75
2022/11/27 07:00:45;;;;;;;5.28;2.35;;;;;;;4.50;100.00;102060.75;5094213;28;20079;-77
2022/11/27 07:03:11;;;;;;;6.75;2.35;;;;;;;4.48;100.00;102052.91;5093005;28;20056;-76
2022/11/27 07:05:36;;;;;;;4.78;2.55;;;;;;;4.47;100.00;102050.34;5093857;28;20024;-75
2022/11/27 07:08:02;;;;;;;9.27;2.80;;;;;;;4.44;100.00;102046.06;5076008;28;20098;-76
2022/11/27 07:10:28;;;;;;;8.60;2.95;;;;;;;4.45;100.00;102049.53;5093320;28;20032;-75
2022/11/27 07:12:53;;;;;;;9.00;3.30;;;;;;;4.49;100.00;102054.59;5093942;28;20445;-75
2022/11/27 07:15:19;;;;;;;8.07;2.80;;;;;;;4.48;100.00;102054.66;5093555;28;20039;-76
2022/11/27 07:17:44;;;;;;;6.38;2.70;;;;;;;4.48;100.00;102045.00;5075939;28;20154;-75
2022/11/27 07:20:10;;;;;;;8.07;2.50;;;;;;;4.47;100.00;102045.91;5093539;28;20036;-75
2022/11/27 07:22:35;;;;;;;5.70;2.53;;;;;;;4.49;100.00;102048.47;5058864;28;20032;-76
2022/11/27 07:25:00;;;;;;;5.60;2.30;;;;;;;4.47;100.00;102050.34;5093666;28;20039;-76
2022/11/27 07:27:26;;;;;;;11.00;2.83;;;;;;;4.46;100.00;102052.09;5074710;28;20253;-76
2022/11/27 07:29:51;;;;;;;9.35;2.88;;;;;;;4.47;100.00;102045.91;5093638;28;20070;-75
2022/11/27 07:32:16;;;;;;;12.02;3.05;;;;;;;4.46;100.00;102043.34;5092753;28;20147;-76
2022/11/27 07:34:42;;;;;;;8.15;2.42;;;;;;;4.46;100.00;102043.34;5093387;28;20047;-75
2022/11/27 07:37:07;;;;;;;10.35;2.88;;;;;;;4.47;100.00;102034.53;5093330;28;20039;-75
2022/11/27 07:39:32;;;;;;;6.50;2.65;;;;;;;4.47;100.00;102035.38;5093366;28;20035;-75
2022/11/27 07:41:58;;;;;;;8.52;2.40;;;;;;;4.48;100.00;102042.34;5093578;28;20032;-75
2022/11/27 07:44:23;;;;;;;7.32;2.90;;;;;;;4.49;100.00;102038.78;5093171;28;20035;-75
2022/11/27 07:46:48;;;;;;;7.05;2.75;;;;;;;4.51;100.00;102041.34;5093525;28;20038;-74
2022/11/27 07:49:14;;;;;;;6.50;2.22;;;;;;;4.50;100.00;102034.38;5092901;28;20053;-75
2022/11/27 07:51:39;;;;;;;10.00;2.58;;;;;;;4.49;100.00;102035.28;5093319;28;20035;-74
2022/11/27 07:54:04;;;;;;;5.75;2.25;;;;;;;4.49;100.00;102038.78;5093107;28;20097;-78
2022/11/27 07:56:30;;;;;;;7.93;2.85;;;;;;;4.50;100.00;102034.38;5092912;28;20241;-74
2022/11/27 07:58:56;;;;;;;6.07;2.40;;;;;;;4.51;100.00;102034.31;5093050;28;20058;-75
2022/11/27 08:01:22;;;;;;;6.28;2.67;;;;;;;4.52;100.00;102040.44;5092518;28;20051;-77
2022/11/27 08:03:47;;;;;;;5.15;2.40;;;;;;;4.52;100.00;102030.75;5092793;28;20468;-75
2022/11/27 08:06:18;;;;;;;6.60;2.75;;;;;;;4.51;100.00;102034.31;5092817;28;20040;-77
2022/11/27 08:08:44;;;;;;;5.40;2.72;;;;;;;4.53;100.00;102035.09;5093455;28;20035;-79
2022/11/27 08:11:24;;;;;;;10.27;3.30;;;;;;;4.53;100.00;102024.53;5092917;28;20052;-76
2022/11/27 08:13:54;;;;;;;8.27;2.83;;;;;;;4.54;100.00;102030.69;5092932;28;20116;-76
2022/11/27 08:16:21;;;;;;;6.53;2.50;;;;;;;4.55;100.00;102027.97;5093059;28;20064;-77
2022/11/27 08:18:46;;;;;;;8.40;2.45;;;;;;;4.54;100.00;102028.91;5072606;28;20087;-77
2022/11/27 08:21:12;;;;;;;7.38;3.03;;;;;;;4.55;100.00;102029.75;5090599;28;20111;-77
2022/11/27 08:23:37;;;;;;;6.43;2.90;;;;;;;4.55;100.00;102038.53;5090254;28;20197;-77
2022/11/27 08:26:10;;;;;;;8.93;2.70;;;;;;;4.57;100.00;102023.47;5089860;28;20104;-78
2022/11/27 08:28:36;;;;;;;10.32;3.25;;;;;;;4.57;100.00;102034.03;5090064;28;20036;-78
2022/11/27 08:31:04;;;;;;;5.00;2.60;;;;;;;4.55;100.00;102027.09;5089463;28;20051;-76
2022/11/27 08:33:30;;;;;;;8.27;3.15;;;;;;;4.58;100.00;102027.84;5090168;28;20068;-79
2022/11/27 08:35:56;;;;;;;8.75;2.80;;;;;;;4.57;100.00;102031.38;5089898;28;20071;-78
2022/11/27 08:38:21;;;;;;;9.93;2.97;;;;;;;4.57;100.00;102028.75;5089561;28;20479;-78
2022/11/27 08:40:58;;;;;;;6.97;2.78;;;;;;;4.58;100.00;102021.69;5089560;28;20051;-77
2022/11/27 08:43:24;;;;;;;8.95;2.75;;;;;;;4.59;100.00;102013.69;5088839;28;20027;-78
2022/11/27 08:45:50;;;;;;;7.70;3.17;;;;;;;4.60;100.00;102019.84;5090189;28;20438;-76
2022/11/27 08:48:15;;;;;;;7.57;3.20;;;;;;;4.62;100.00;102015.34;5089985;28;20124;-77
2022/11/27 08:50:41;;;;;;;11.60;3.88;;;;;;;4.64;100.00;102020.56;5089501;28;20471;-76
2022/11/27 08:53:06;;;;;;;10.15;3.25;;;;;;;4.65;100.00;102023.13;5071544;28;20127;-77
2022/11/27 08:55:31;;;;;;;11.65;3.15;;;;;;;4.68;100.00;102022.13;5088880;28;20040;-77
2022/11/27 08:57:57;;;;;;;8.20;3.22;;;;;;;4.69;100.00;102018.56;5089550;28;20032;-77
2022/11/27 09:00:22;;;;;;;10.73;3.35;;;;;;;4.70;100.00;102018.50;5089380;28;20476;-76
2022/11/27 09:02:48;;;;;;;7.45;2.80;;;;;;;4.69;100.00;102019.41;5086552;28;20185;-77
2022/11/27 09:05:13;;;;;;;9.80;3.55;;;;;;;4.72;100.00;102024.53;5091198;28;20035;-77
2022/11/27 09:07:39;;;;;;;9.43;3.33;;;;;;;4.73;100.00;102017.47;5091317;28;20430;-75
2022/11/27 09:10:06;;;;;;;8.73;3.20;;;;;;;4.73;100.00;102015.72;5092474;28;20100;-76
2022/11/27 09:12:32;;;;;;;8.68;3.15;;;;;;;4.75;100.00;102013.00;5091951;28;20066;-78
2022/11/27 09:14:57;;;;;;;10.95;3.47;;;;;;;4.75;100.00;102007.72;5092633;28;20089;-77
2022/11/27 09:17:22;;;;;;;8.20;3.25;;;;;;;4.79;100.00;102016.34;5092158;28;20024;-78
2022/11/27 09:19:48;;;;;;;10.15;3.63;;;;;;;4.77;100.00;102006.72;5091999;28;20036;-78
2022/11/27 09:22:13;;;;;;;7.47;3.90;;;;;;;4.79;100.00;102009.28;5092412;28;20437;-77
2022/11/27 09:24:38;;;;;;;7.85;3.38;;;;;;;4.79;100.00;102009.28;5091786;28;20032;-77
2022/11/27 09:27:04;;;;;;;7.00;3.47;;;;;;;4.79;100.00;102013.69;5091956;28;20529;-78
2022/11/27 09:29:29;;;;;;;11.73;4.00;;;;;;;4.79;100.00;102011.91;5091770;28;20537;-78
2022/11/27 09:31:54;;;;;;;11.48;3.97;;;;;;;4.80;100.00;102005.72;5092290;28;20067;-77
2022/11/27 09:34:20;;;;;;;10.18;3.58;;;;;;;4.80;100.00;102002.25;5091882;28;20115;-82
2022/11/27 09:36:45;;;;;;;8.05;3.38;;;;;;;4.82;100.00;102000.38;5091754;28;20089;-78
2022/11/27 09:39:12;;;;;;;9.40;3.75;;;;;;;4.80;100.00;101987.25;5085100;28;20040;-76
2022/11/27 09:41:45;;;;;;;10.60;4.03;;;;;;;4.83;100.00;101988.91;5081393;28;20029;-78
2022/11/27 09:44:27;;;;;;;10.27;3.58;;;;;;;4.83;100.00;101989.75;5057692;28;20344;-78
2022/11/27 09:46:55;;;;;;;8.18;3.72;;;;;;;4.83;100.00;101983.63;5092609;28;20082;-77
2022/11/27 09:49:32;;;;;;;10.82;4.70;;;;;;;4.84;100.00;101987.97;5094476;28;20044;-78
2022/11/27 09:52:17;;;;;;;10.05;4.38;;;;;;;4.83;100.00;101981.00;5095711;28;20549;-76
2022/11/27 09:54:53;;;;;;;13.00;3.88;;;;;;;4.84;100.00;101982.72;5095863;28;20020;-78
2022/11/27 09:57:27;;;;;;;9.77;4.10;;;;;;;4.85;100.00;101981.75;5095613;28;20028;-76
2022/11/27 09:59:53;;;;;;;6.95;3.97;;;;;;;4.85;100.00;101974.72;5095706;28;20028;-76
2022/11/27 10:02:30;;;;;;;10.60;4.00;;;;;;;4.85;100.00;101979.13;5095312;28;20032;-76
2022/11/27 10:04:58;;;;;;;11.23;3.92;;;;;;;4.84;100.00;101977.44;5095653;28;20024;-76
2022/11/27 10:07:51;;;;;;;10.65;4.30;;;;;;;4.84;100.00;101970.38;5095335;28;20043;-75
2022/11/27 10:10:44;;;;;;;11.05;4.35;;;;;;;4.86;100.00;101965.88;5095563;28;20026;-74
2022/11/27 10:13:45;;;;;;;15.10;5.18;;;;;;;4.86;100.00;101973.78;5088730;28;20040;-75
2022/11/27 10:16:16;;;;;;;10.27;4.28;;;;;;;4.86;100.00;101965.88;5095511;28;20028;-75
2022/11/27 10:18:54;;;;;;;10.18;4.18;;;;;;;4.87;100.00;101957.03;5094938;28;20055;-76
2022/11/27 10:21:28;;;;;;;11.48;4.30;;;;;;;4.90;100.00;101961.31;5093609;28;20111;-76
2022/11/27 10:24:02;;;;;;;10.57;4.55;;;;;;;4.91;100.00;101960.34;5094760;28;20031;-76
2022/11/27 10:26:36;;;;;;;9.60;4.22;;;;;;;4.92;100.00;101956.81;5095058;28;20358;-75
2022/11/27 10:29:20;;;;;;;12.98;4.57;;;;;;;4.92;100.00;101951.53;5094768;28;20024;-76
2022/11/27 10:31:52;;;;;;;10.73;4.07;;;;;;;4.95;100.00;101951.38;5094647;28;20123;-76
2022/11/27 10:34:33;;;;;;;7.25;3.88;;;;;;;4.97;100.00;101956.56;5095034;28;20038;-76
2022/11/27 10:37:04;;;;;;;8.38;3.88;;;;;;;4.96;100.00;101958.38;5094557;28;20028;-75
2022/11/27 10:39:39;;;;;;;9.07;4.03;;;;;;;4.99;100.00;101950.31;5094836;28;20436;-76
2022/11/27 10:42:16;;;;;;;10.05;4.30;;;;;;;5.02;100.00;101946.66;5094718;28;20043;-76
2022/11/27 10:44:49;;;;;;;9.20;4.35;;;;;;;5.02;100.00;101942.22;5094238;28;20028;-76
2022/11/27 10:47:16;;;;;;;10.57;4.40;;;;;;;5.04;100.00;101931.59;5094496;28;20050;-76
2022/11/27 10:49:42;;;;;;;10.05;4.03;;;;;;;5.04;100.00;101934.25;5093909;28;20036;-75
2022/11/27 10:52:12;;;;;;;11.05;4.60;;;;;;;5.07;100.00;101924.38;5093204;28;20052;-75
2022/11/27 10:54:38;;;;;;;11.98;4.65;;;;;;;5.10;100.00;101920.75;5093993;28;20067;-75
2022/11/27 10:57:37;;;;;;;13.95;4.68;;;;;;;5.12;100.00;101916.25;5094401;28;20146;-75
2022/11/27 11:00:18;;;;;;;8.63;4.10;;;;;;;5.12;100.00;101908.34;5073728;28;20066;-79
2022/11/27 11:02:44;;;;;;;9.93;4.65;;;;;;;5.15;100.00;101904.69;5081228;28;20035;-77
2022/11/27 11:05:22;;;;;;;14.80;4.93;;;;;;;5.12;100.00;101900.44;5076910;28;20039;-76
2022/11/27 11:07:55;;;;;;;9.50;4.53;;;;;;;5.15;100.00;101908.19;5093176;28;20086;-75
2022/11/27 11:10:34;;;;;;;14.65;5.30;;;;;;;5.18;100.00;101904.53;5093687;28;20468;-75
2022/11/27 11:13:14;;;;;;;10.38;5.13;;;;;;;5.14;100.00;101901.19;5092747;28;20028;-78
2022/11/27 11:15:49;;;;;;;10.88;5.32;;;;;;;5.15;100.00;101897.63;5093162;28;20046;-75
2022/11/27 11:18:17;;;;;;;14.60;5.35;;;;;;;5.15;100.00;101891.47;5093017;28;20020;-77
2022/11/27 11:20:46;;;;;;;15.63;6.10;;;;;;;5.11;100.00;101896.06;5093042;28;20040;-76
2022/11/27 11:23:22;;;;;;;13.85;5.60;;;;;;;5.10;100.00;101895.19;5093051;28;20058;-76
2022/11/27 11:25:54;;;;;;;13.35;5.13;;;;;;;5.07;100.00;101892.72;5093624;28;20369;-77
2022/11/27 11:28:21;;;;;;;13.00;5.13;;;;;;;5.11;100.00;101893.44;5093358;28;20472;-74
2022/11/27 11:30:56;;;;;;;14.13;5.60;;;;;;;5.13;100.00;101891.56;5092352;28;20036;-75